Time;durP1;ratioP1;P1;durP2;ratioP2;P2;SDS_P1;SDS_P2;PMS_P1;PMS_P2;Temp;Humidity;BMP_temperature;BMP_pressure;BME280_temperature;BME280_humidity;BME280_pressure;Samples;Min_cycle;Max_cycle;Signal;HPM_P1;HPM_P2
2021/11/21 00:00:06;;;;;;;;;37.50;32.00;;;;;;;;5070911;28;49796;-71
2021/11/21 00:02:32;;;;;;;;;33.00;30.50;;;;;;;;5070085;28;50861;-73
2021/11/21 00:04:57;;;;;;;;;34.25;30.25;;;;;;;;5070661;28;49771;-72
2021/11/21 00:07:22;;;;;;;;;28.25;26.25;;;;;;;;5070584;28;49795;-69
2021/11/21 00:09:49;;;;;;;;;33.75;30.25;;;;;;;;5070672;28;49995;-73
2021/11/21 00:12:15;;;;;;;;;29.75;29.00;;;;;;;;5070621;27;49931;-74
2021/11/21 00:14:40;;;;;;;;;28.50;28.00;;;;;;;;5070615;28;49773;-69
2021/11/21 00:17:07;;;;;;;;;34.50;30.25;;;;;;;;5070628;28;49715;-66
2021/11/21 00:19:32;;;;;;;;;35.00;28.00;;;;;;;;5070835;28;50121;-66
2021/11/21 00:21:58;;;;;;;;;32.75;29.25;;;;;;;;5063802;28;50178;-66
2021/11/21 00:24:23;;;;;;;;;36.50;30.25;;;;;;;;5051590;28;49754;-67
2021/11/21 00:26:48;;;;;;;;;32.00;27.50;;;;;;;;5050118;28;49789;-66
2021/11/21 00:29:13;;;;;;;;;35.25;30.75;;;;;;;;5050358;28;50087;-68
2021/11/21 00:31:38;;;;;;;;;23.50;23.50;;;;;;;;5050058;28;50592;-69
2021/11/21 00:34:04;;;;;;;;;34.00;28.00;;;;;;;;5050235;28;50079;-67
2021/11/21 00:36:29;;;;;;;;;35.00;30.50;;;;;;;;5050241;28;49821;-67
2021/11/21 00:38:54;;;;;;;;;34.25;27.25;;;;;;;;5050047;28;49788;-67
2021/11/21 00:41:19;;;;;;;;;31.25;26.50;;;;;;;;5049656;28;50884;-66
2021/11/21 00:43:44;;;;;;;;;34.25;27.75;;;;;;;;5049895;28;49794;-66
2021/11/21 00:46:10;;;;;;;;;33.50;29.25;;;;;;;;5050032;28;49697;-66
2021/11/21 00:48:37;;;;;;;;;30.00;25.00;;;;;;;;5050095;28;49538;-66
2021/11/21 00:51:03;;;;;;;;;26.50;24.50;;;;;;;;5049781;28;50539;-72
2021/11/21 00:53:28;;;;;;;;;27.25;27.25;;;;;;;;5049540;28;49657;-72
2021/11/21 00:56:01;;;;;;;;;28.00;22.75;;;;;;;;5049825;28;50159;-71
2021/11/21 00:58:26;;;;;;;;;37.75;32.50;;;;;;;;5050059;28;49743;-74
2021/11/21 01:00:52;;;;;;;;;38.00;30.25;;;;;;;;5049499;28;50179;-73
2021/11/21 01:03:18;;;;;;;;;29.75;29.75;;;;;;;;5049711;28;49785;-74
2021/11/21 01:05:44;;;;;;;;;35.25;29.50;;;;;;;;5049677;28;49726;-71
2021/11/21 01:08:10;;;;;;;;;34.50;28.75;;;;;;;;5049607;28;49689;-74
2021/11/21 01:10:36;;;;;;;;;32.00;29.50;;;;;;;;5049444;28;50759;-74
2021/11/21 01:13:01;;;;;;;;;31.75;29.25;;;;;;;;5049672;28;50203;-69
2021/11/21 01:15:26;;;;;;;;;27.00;25.00;;;;;;;;5053257;28;49598;-73
2021/11/21 01:17:52;;;;;;;;;37.25;29.25;;;;;;;;5053266;28;49728;-74
2021/11/21 01:20:18;;;;;;;;;38.00;31.00;;;;;;;;5052856;28;49673;-67
2021/11/21 01:22:44;;;;;;;;;30.00;28.25;;;;;;;;5052682;28;49894;-74
2021/11/21 01:25:10;;;;;;;;;30.75;28.75;;;;;;;;5052738;28;49706;-73
2021/11/21 01:27:36;;;;;;;;;34.00;30.75;;;;;;;;5053120;28;49731;-70
2021/11/21 01:30:01;;;;;;;;;29.00;27.75;;;;;;;;5052689;28;50581;-74
2021/11/21 01:32:26;;;;;;;;;28.75;27.75;;;;;;;;5052839;28;49704;-74
2021/11/21 01:34:52;;;;;;;;;33.00;30.50;;;;;;;;5052955;28;49822;-70
2021/11/21 01:37:18;;;;;;;;;15.50;15.50;;;;;;;;5052712;28;49968;-73
2021/11/21 01:39:43;;;;;;;;;28.75;27.25;;;;;;;;5052613;28;51118;-74
2021/11/21 01:42:08;;;;;;;;;38.50;28.25;;;;;;;;5052674;28;49896;-73
2021/11/21 01:44:34;;;;;;;;;31.25;27.00;;;;;;;;5063864;28;49925;-74
2021/11/21 01:46:59;;;;;;;;;32.50;30.50;;;;;;;;5072918;28;49705;-74
2021/11/21 01:49:24;;;;;;;;;38.50;31.00;;;;;;;;5071921;28;49712;-74
2021/11/21 01:51:50;;;;;;;;;32.50;30.25;;;;;;;;5072768;28;49957;-74
2021/11/21 01:54:16;;;;;;;;;31.75;29.75;;;;;;;;5072668;28;49656;-73
2021/11/21 01:56:42;;;;;;;;;31.25;26.50;;;;;;;;5072921;28;49974;-73
2021/11/21 01:59:07;;;;;;;;;29.75;29.50;;;;;;;;5072681;28;50567;-74
2021/11/21 02:01:33;;;;;;;;;30.25;26.25;;;;;;;;5072552;28;49545;-72
2021/11/21 02:03:58;;;;;;;;;30.25;29.75;;;;;;;;5072676;28;49771;-71
2021/11/21 02:06:24;;;;;;;;;27.50;24.50;;;;;;;;5072769;27;49475;-72
2021/11/21 02:08:51;;;;;;;;;27.25;23.75;;;;;;;;5072189;28;50133;-73
2021/11/21 02:11:16;;;;;;;;;28.00;24.75;;;;;;;;5072611;28;49748;-74
2021/11/21 02:13:41;;;;;;;;;32.25;25.00;;;;;;;;5072614;27;49756;-69
2021/11/21 02:16:08;;;;;;;;;30.50;26.75;;;;;;;;5072770;27;49775;-66
2021/11/21 02:18:33;;;;;;;;;29.00;26.25;;;;;;;;5072222;28;49636;-68
2021/11/21 02:20:58;;;;;;;;;33.25;28.50;;;;;;;;5072313;28;49790;-73
2021/11/21 02:23:24;;;;;;;;;37.25;31.50;;;;;;;;5072048;28;50059;-68
2021/11/21 02:25:50;;;;;;;;;27.50;25.25;;;;;;;;5072000;28;49920;-69
2021/11/21 02:28:16;;;;;;;;;27.00;21.25;;;;;;;;5072134;28;49889;-69
2021/11/21 02:30:41;;;;;;;;;33.75;29.75;;;;;;;;5072317;28;49837;-65
2021/11/21 02:33:08;;;;;;;;;32.50;29.75;;;;;;;;5072319;28;49885;-65
2021/11/21 02:35:36;;;;;;;;;32.75;27.50;;;;;;;;5072206;28;49788;-64
2021/11/21 02:38:01;;;;;;;;;36.00;29.00;;;;;;;;5053409;28;51975;-65
2021/11/21 02:40:27;;;;;;;;;36.25;29.25;;;;;;;;5072045;28;49558;-66
2021/11/21 02:42:52;;;;;;;;;32.75;30.75;;;;;;;;5071879;28;49699;-65
2021/11/21 02:45:18;;;;;;;;;32.50;29.00;;;;;;;;5071646;27;49748;-67
2021/11/21 02:47:44;;;;;;;;;36.75;31.50;;;;;;;;5071543;28;51539;-65
2021/11/21 02:50:11;;;;;;;;;34.50;28.00;;;;;;;;5071705;28;49802;-67
2021/11/21 02:52:36;;;;;;;;;31.50;29.50;;;;;;;;5071729;28;49614;-65
2021/11/21 02:55:02;;;;;;;;;29.50;27.75;;;;;;;;5071997;28;49858;-65
2021/11/21 02:57:27;;;;;;;;;31.75;28.25;;;;;;;;5071611;27;49812;-67
2021/11/21 02:59:53;;;;;;;;;41.00;29.25;;;;;;;;5071799;28;49611;-65
2021/11/21 03:02:19;;;;;;;;;33.75;29.50;;;;;;;;5071701;28;49892;-66
2021/11/21 03:04:48;;;;;;;;;41.00;37.00;;;;;;;;5071881;27;49874;-65
2021/11/21 03:07:14;;;;;;;;;38.00;29.50;;;;;;;;5071222;27;50668;-65
2021/11/21 03:09:40;;;;;;;;;38.25;33.50;;;;;;;;5071569;28;49774;-66
2021/11/21 03:12:06;;;;;;;;;40.50;35.00;;;;;;;;5071613;28;49621;-65
2021/11/21 03:14:31;;;;;;;;;38.00;32.00;;;;;;;;5071571;28;49607;-65
2021/11/21 03:16:57;;;;;;;;;37.25;29.00;;;;;;;;5071257;28;50740;-65
2021/11/21 03:21:57;;;;;;;;;39.00;36.75;;;;;;;;5438327;22;49893;-65
2021/11/21 03:24:22;;;;;;;;;41.50;35.75;;;;;;;;5065358;28;49529;-66
2021/11/21 03:26:47;;;;;;;;;40.25;35.75;;;;;;;;5071363;28;50013;-66
2021/11/21 03:29:13;;;;;;;;;41.25;37.00;;;;;;;;5071483;28;49788;-69
2021/11/21 03:31:38;;;;;;;;;44.50;30.75;;;;;;;;5071556;28;49849;-71
2021/11/21 03:34:04;;;;;;;;;43.00;36.25;;;;;;;;5071600;28;49528;-70
2021/11/21 03:36:30;;;;;;;;;38.50;33.00;;;;;;;;5070541;27;49659;-73
2021/11/21 03:38:56;;;;;;;;;38.50;35.25;;;;;;;;5071356;28;49783;-74
2021/11/21 03:41:21;;;;;;;;;41.25;36.00;;;;;;;;5071412;27;49746;-74
2021/11/21 03:43:46;;;;;;;;;39.50;33.25;;;;;;;;5071746;28;49853;-75
2021/11/21 03:46:11;;;;;;;;;43.00;34.75;;;;;;;;5071038;27;49773;-73
2021/11/21 03:48:37;;;;;;;;;34.00;30.75;;;;;;;;5071288;27;49870;-73
2021/11/21 03:51:02;;;;;;;;;37.00;33.25;;;;;;;;5071042;27;50171;-73
2021/11/21 03:53:27;;;;;;;;;37.00;35.75;;;;;;;;5071678;28;49907;-74
2021/11/21 03:55:52;;;;;;;;;35.00;31.25;;;;;;;;5071096;27;49671;-74
2021/11/21 03:58:18;;;;;;;;;37.50;31.00;;;;;;;;5071117;27;50011;-73
2021/11/21 04:00:46;;;;;;;;;44.25;38.00;;;;;;;;5071204;28;49759;-73
2021/11/21 04:03:12;;;;;;;;;36.00;33.25;;;;;;;;5071011;27;49786;-73
2021/11/21 04:05:37;;;;;;;;;34.25;29.75;;;;;;;;5070686;27;50982;-73
2021/11/21 04:08:02;;;;;;;;;36.50;26.00;;;;;;;;5071027;27;49870;-73
2021/11/21 04:10:30;;;;;;;;;32.25;30.25;;;;;;;;5071165;28;49629;-74
2021/11/21 04:12:55;;;;;;;;;36.50;32.00;;;;;;;;5071144;28;49956;-75
2021/11/21 04:15:20;;;;;;;;;32.00;26.50;;;;;;;;5070880;28;50815;-74
2021/11/21 04:17:45;;;;;;;;;32.75;30.00;;;;;;;;5070794;27;49821;-74
2021/11/21 04:20:11;;;;;;;;;35.25;29.75;;;;;;;;5070567;28;49763;-73
2021/11/21 04:22:36;;;;;;;;;37.50;30.75;;;;;;;;5069357;28;50017;-67
2021/11/21 04:25:02;;;;;;;;;37.50;35.25;;;;;;;;5070298;28;49809;-67
2021/11/21 04:27:27;;;;;;;;;39.00;34.75;;;;;;;;5070795;27;50178;-67
2021/11/21 04:29:56;;;;;;;;;39.50;33.75;;;;;;;;5070809;28;49773;-66
2021/11/21 04:32:24;;;;;;;;;36.00;32.00;;;;;;;;5070919;28;49242;-67
2021/11/21 04:34:50;;;;;;;;;28.00;26.00;;;;;;;;5070353;28;49878;-67
2021/11/21 04:37:16;;;;;;;;;38.00;30.50;;;;;;;;5070605;27;49690;-69
2021/11/21 04:39:41;;;;;;;;;37.00;32.25;;;;;;;;5070660;27;49778;-66
2021/11/21 04:42:07;;;;;;;;;33.25;32.50;;;;;;;;5070731;28;49833;-68
2021/11/21 04:44:32;;;;;;;;;33.00;32.00;;;;;;;;5070519;28;50502;-67
2021/11/21 04:46:57;;;;;;;;;35.75;31.25;;;;;;;;5070570;27;49728;-67
2021/11/21 04:49:22;;;;;;;;;29.50;27.50;;;;;;;;5072459;28;49762;-67
2021/11/21 04:51:48;;;;;;;;;42.50;37.25;;;;;;;;5074377;27;49860;-66
2021/11/21 04:54:18;;;;;;;;;38.25;34.75;;;;;;;;5073826;28;50309;-67
2021/11/21 04:56:45;;;;;;;;;34.25;27.25;;;;;;;;5073759;28;49699;-69
2021/11/21 04:59:11;;;;;;;;;31.00;26.75;;;;;;;;5073917;27;49911;-67
2021/11/21 05:01:36;;;;;;;;;41.50;35.75;;;;;;;;5073954;28;49896;-67
2021/11/21 05:04:01;;;;;;;;;38.50;29.50;;;;;;;;5073512;28;49772;-66
2021/11/21 05:06:26;;;;;;;;;43.75;34.25;;;;;;;;5073886;28;49746;-67
2021/11/21 05:08:51;;;;;;;;;30.25;26.75;;;;;;;;5073926;27;49642;-68
2021/11/21 05:11:17;;;;;;;;;30.25;26.75;;;;;;;;5074012;27;50260;-67
2021/11/21 05:13:42;;;;;;;;;36.75;29.75;;;;;;;;5073620;27;50424;-66
2021/11/21 05:16:07;;;;;;;;;30.75;24.75;;;;;;;;5073763;28;49815;-67
2021/11/21 05:18:32;;;;;;;;;33.00;27.50;;;;;;;;5071908;28;49685;-66
2021/11/21 05:20:58;;;;;;;;;27.50;25.75;;;;;;;;5073344;28;49586;-67
2021/11/21 05:23:23;;;;;;;;;24.50;23.50;;;;;;;;5073547;28;50844;-67
2021/11/21 05:25:48;;;;;;;;;29.00;26.25;;;;;;;;5073358;27;49701;-67
2021/11/21 05:28:14;;;;;;;;;28.75;27.75;;;;;;;;5073640;27;49692;-68
2021/11/21 05:30:40;;;;;;;;;30.50;26.75;;;;;;;;5073704;27;50020;-67
2021/11/21 05:33:08;;;;;;;;;33.00;31.25;;;;;;;;5073190;27;50674;-67
2021/11/21 05:35:33;;;;;;;;;32.50;25.00;;;;;;;;5073100;27;49617;-68
2021/11/21 05:37:59;;;;;;;;;35.00;32.50;;;;;;;;5073557;27;49820;-68
2021/11/21 05:40:24;;;;;;;;;32.00;25.00;;;;;;;;5073398;27;49903;-68
2021/11/21 05:42:49;;;;;;;;;37.25;27.50;;;;;;;;5073297;27;50678;-67
2021/11/21 05:45:15;;;;;;;;;36.00;28.75;;;;;;;;5073073;28;49753;-66
2021/11/21 05:47:41;;;;;;;;;38.50;33.75;;;;;;;;5073396;27;50136;-67
2021/11/21 05:50:12;;;;;;;;;28.50;24.75;;;;;;;;5073220;27;49806;-67
2021/11/21 05:52:37;;;;;;;;;32.00;24.75;;;;;;;;5072839;27;50566;-69
2021/11/21 05:55:03;;;;;;;;;25.75;24.00;;;;;;;;5073144;28;49777;-65
2021/11/21 05:57:28;;;;;;;;;28.75;27.75;;;;;;;;5073331;27;49923;-66
2021/11/21 05:59:53;;;;;;;;;30.75;29.50;;;;;;;;5072623;27;49616;-66
2021/11/21 06:02:18;;;;;;;;;27.00;25.75;;;;;;;;5072895;28;49878;-66
2021/11/21 06:04:44;;;;;;;;;35.00;29.00;;;;;;;;5072742;28;49580;-66
2021/11/21 06:07:10;;;;;;;;;22.25;19.50;;;;;;;;5073034;27;49616;-66
2021/11/21 06:09:35;;;;;;;;;30.00;27.50;;;;;;;;5072943;28;49879;-72
2021/11/21 06:12:00;;;;;;;;;27.50;24.25;;;;;;;;5072595;27;50591;-75
2021/11/21 06:14:26;;;;;;;;;38.00;31.75;;;;;;;;5072797;27;49689;-70
2021/11/21 06:16:51;;;;;;;;;30.25;25.25;;;;;;;;5072870;27;49865;-76
2021/11/21 06:19:16;;;;;;;;;25.50;25.25;;;;;;;;5072637;28;49569;-74
2021/11/21 06:21:42;;;;;;;;;33.00;24.75;;;;;;;;5072637;28;51057;-75
2021/11/21 06:24:07;;;;;;;;;32.00;29.00;;;;;;;;5072590;28;49851;-75
2021/11/21 06:26:33;;;;;;;;;29.50;25.75;;;;;;;;5072453;27;49730;-66
2021/11/21 06:28:58;;;;;;;;;30.00;26.25;;;;;;;;5072611;27;49921;-68
2021/11/21 06:31:24;;;;;;;;;30.00;26.25;;;;;;;;5072363;27;50167;-67
2021/11/21 06:33:49;;;;;;;;;26.50;24.50;;;;;;;;5072324;28;49670;-70
2021/11/21 06:36:14;;;;;;;;;33.00;28.25;;;;;;;;5072285;28;49595;-67
2021/11/21 06:38:40;;;;;;;;;30.00;25.00;;;;;;;;5072731;27;49916;-74
2021/11/21 06:41:05;;;;;;;;;34.25;29.50;;;;;;;;5072155;28;50824;-72
2021/11/21 06:43:30;;;;;;;;;33.75;29.75;;;;;;;;5072260;27;49840;-66
2021/11/21 06:45:55;;;;;;;;;33.75;25.75;;;;;;;;5070963;28;49806;-67
2021/11/21 06:48:22;;;;;;;;;31.00;27.00;;;;;;;;5071184;28;49822;-69
2021/11/21 06:50:48;;;;;;;;;24.25;19.25;;;;;;;;5071792;27;49710;-68
2021/11/21 06:53:14;;;;;;;;;26.50;23.50;;;;;;;;5072216;27;49612;-69
2021/11/21 06:55:39;;;;;;;;;27.25;26.00;;;;;;;;5072286;27;49751;-69
2021/11/21 06:58:05;;;;;;;;;28.50;23.50;;;;;;;;5072176;28;49631;-66
2021/11/21 07:00:30;;;;;;;;;28.25;24.25;;;;;;;;5071937;28;50793;-67
2021/11/21 07:02:55;;;;;;;;;29.25;24.50;;;;;;;;5071923;27;49789;-69
2021/11/21 07:05:20;;;;;;;;;27.25;24.25;;;;;;;;5071878;28;49905;-67
2021/11/21 07:07:46;;;;;;;;;34.00;27.50;;;;;;;;5072106;28;49818;-67
2021/11/21 07:10:12;;;;;;;;;28.00;23.25;;;;;;;;5071829;27;50225;-67
2021/11/21 07:12:37;;;;;;;;;29.50;27.00;;;;;;;;5069783;28;49777;-69
2021/11/21 07:15:03;;;;;;;;;29.75;26.25;;;;;;;;5071918;28;49772;-66
2021/11/21 07:17:28;;;;;;;;;28.00;23.00;;;;;;;;5071987;28;49652;-69
2021/11/21 07:19:53;;;;;;;;;27.50;21.50;;;;;;;;5071411;28;49613;-71
2021/11/21 07:22:20;;;;;;;;;27.75;27.50;;;;;;;;5071443;27;50011;-69
2021/11/21 07:24:45;;;;;;;;;28.75;26.00;;;;;;;;5070384;28;49744;-66
2021/11/21 07:27:10;;;;;;;;;25.25;23.50;;;;;;;;5071639;27;50028;-67
2021/11/21 07:29:35;;;;;;;;;24.50;24.25;;;;;;;;5071773;27;50999;-73
2021/11/21 07:32:02;;;;;;;;;27.50;24.50;;;;;;;;5071522;28;49750;-71
2021/11/21 07:34:28;;;;;;;;;24.25;20.75;;;;;;;;5071453;27;49733;-75
2021/11/21 07:36:53;;;;;;;;;21.00;20.00;;;;;;;;5071779;27;49642;-75
2021/11/21 07:39:19;;;;;;;;;20.25;19.50;;;;;;;;5071290;28;50586;-74
2021/11/21 07:41:44;;;;;;;;;30.00;24.75;;;;;;;;5071325;27;49783;-73
2021/11/21 07:44:09;;;;;;;;;19.00;17.50;;;;;;;;5071458;27;49694;-71
2021/11/21 07:46:35;;;;;;;;;22.00;20.25;;;;;;;;5071670;27;49666;-74
2021/11/21 07:49:00;;;;;;;;;26.00;20.75;;;;;;;;5070975;28;50631;-71
2021/11/21 07:51:25;;;;;;;;;22.75;19.25;;;;;;;;5071362;28;49923;-71
2021/11/21 07:53:51;;;;;;;;;29.75;22.25;;;;;;;;5071426;27;49857;-71
2021/11/21 07:56:17;;;;;;;;;22.75;19.25;;;;;;;;5071320;28;49742;-73
2021/11/21 07:58:42;;;;;;;;;22.00;18.50;;;;;;;;5071570;27;50487;-72
2021/11/21 08:01:07;;;;;;;;;26.75;26.00;;;;;;;;5071178;27;50006;-74
2021/11/21 08:03:33;;;;;;;;;27.50;24.00;;;;;;;;5071413;27;49934;-72
2021/11/21 08:05:58;;;;;;;;;25.00;22.75;;;;;;;;5071059;27;49828;-72
2021/11/21 08:08:23;;;;;;;;;23.00;20.00;;;;;;;;5070932;28;49644;-72
2021/11/21 08:10:48;;;;;;;;;23.00;19.75;;;;;;;;5070974;28;49721;-72
2021/11/21 08:13:13;;;;;;;;;27.25;21.00;;;;;;;;5071019;28;49555;-69
2021/11/21 08:15:39;;;;;;;;;25.00;23.75;;;;;;;;5071224;28;49486;-75
2021/11/21 08:18:04;;;;;;;;;20.00;19.50;;;;;;;;5070707;28;50283;-73
2021/11/21 08:20:29;;;;;;;;;23.25;18.25;;;;;;;;5070555;27;49758;-74
2021/11/21 08:22:54;;;;;;;;;26.00;23.50;;;;;;;;5070760;27;49980;-74
2021/11/21 08:25:20;;;;;;;;;22.50;20.00;;;;;;;;5070918;28;49771;-67
2021/11/21 08:27:45;;;;;;;;;22.50;22.00;;;;;;;;5070871;28;49781;-64
2021/11/21 08:30:10;;;;;;;;;23.00;21.25;;;;;;;;5070708;27;49630;-66
2021/11/21 08:32:36;;;;;;;;;18.00;17.50;;;;;;;;5070655;27;49748;-66
2021/11/21 08:35:01;;;;;;;;;21.75;20.75;;;;;;;;5070709;27;49979;-66
2021/11/21 08:37:27;;;;;;;;;22.75;20.25;;;;;;;;5070565;27;51236;-67
2021/11/21 08:39:53;;;;;;;;;24.25;19.50;;;;;;;;5070635;28;49584;-65
2021/11/21 08:42:18;;;;;;;;;19.00;18.25;;;;;;;;5070589;27;49665;-66
2021/11/21 08:44:43;;;;;;;;;14.75;12.50;;;;;;;;5070821;27;49831;-63
2021/11/21 08:47:10;;;;;;;;;23.25;21.50;;;;;;;;5070401;28;49552;-69
2021/11/21 08:49:36;;;;;;;;;28.50;21.25;;;;;;;;5070336;27;50012;-76
2021/11/21 08:52:01;;;;;;;;;26.75;21.25;;;;;;;;5070516;28;49676;-69
2021/11/21 08:54:27;;;;;;;;;16.00;13.25;;;;;;;;5070609;28;50028;-68
2021/11/21 08:56:52;;;;;;;;;21.50;19.00;;;;;;;;5070341;27;49775;-75
2021/11/21 08:59:19;;;;;;;;;21.50;20.25;;;;;;;;5070521;28;49815;-64
2021/11/21 09:01:44;;;;;;;;;20.00;17.25;;;;;;;;5070440;28;49841;-66
2021/11/21 09:04:11;;;;;;;;;30.50;24.50;;;;;;;;5070347;27;49641;-70
2021/11/21 09:06:36;;;;;;;;;24.25;21.25;;;;;;;;5070077;28;50492;-66
2021/11/21 09:09:01;;;;;;;;;23.00;17.50;;;;;;;;5070143;28;49816;-66
2021/11/21 09:11:27;;;;;;;;;23.75;21.00;;;;;;;;5070237;28;49763;-74
2021/11/21 09:13:52;;;;;;;;;19.00;18.75;;;;;;;;5070357;27;49652;-76
2021/11/21 09:16:17;;;;;;;;;23.00;19.75;;;;;;;;5068643;28;52771;-70
2021/11/21 09:18:43;;;;;;;;;22.50;21.25;;;;;;;;5069841;28;49631;-70
2021/11/21 09:21:11;;;;;;;;;25.00;21.75;;;;;;;;5062861;27;50339;-69
2021/11/21 09:23:37;;;;;;;;;21.50;17.75;;;;;;;;5058242;28;49823;-75
2021/11/21 09:26:03;;;;;;;;;28.75;21.75;;;;;;;;5049383;28;50688;-68
2021/11/21 09:28:28;;;;;;;;;21.25;20.00;;;;;;;;5069239;28;49778;-68
2021/11/21 09:30:55;;;;;;;;;25.75;20.50;;;;;;;;5069835;28;49866;-69
2021/11/21 09:33:20;;;;;;;;;21.25;21.25;;;;;;;;5068843;27;49563;-67
2021/11/21 09:35:47;;;;;;;;;25.25;21.25;;;;;;;;5071781;28;50666;-69
2021/11/21 09:38:12;;;;;;;;;19.50;14.25;;;;;;;;5071498;28;49912;-67
2021/11/21 09:40:38;;;;;;;;;27.00;22.25;;;;;;;;5073303;27;49625;-66
2021/11/21 09:43:03;;;;;;;;;27.00;25.25;;;;;;;;5073394;27;49871;-68
2021/11/21 09:45:29;;;;;;;;;28.00;28.00;;;;;;;;5072893;27;50345;-67
2021/11/21 09:47:56;;;;;;;;;26.25;23.00;;;;;;;;5073010;27;49837;-65
2021/11/21 09:50:22;;;;;;;;;34.50;29.75;;;;;;;;5073023;28;49652;-69
2021/11/21 09:52:48;;;;;;;;;28.25;22.50;;;;;;;;5074060;27;49819;-73
2021/11/21 09:55:14;;;;;;;;;20.50;18.75;;;;;;;;5072805;27;50855;-72
2021/11/21 09:57:39;;;;;;;;;27.75;23.50;;;;;;;;5071710;28;49769;-73
2021/11/21 10:00:04;;;;;;;;;26.50;24.25;;;;;;;;5064727;27;49787;-75
2021/11/21 10:02:31;;;;;;;;;30.00;22.75;;;;;;;;5062471;27;50038;-75
2021/11/21 10:05:00;;;;;;;;;21.75;18.50;;;;;;;;5052162;28;50475;-81
2021/11/21 10:07:28;;;;;;;;;19.00;18.00;;;;;;;;5051043;28;49974;-74
2021/11/21 10:09:54;;;;;;;;;23.25;20.25;;;;;;;;5052712;28;49687;-65
2021/11/21 10:12:20;;;;;;;;;23.25;21.00;;;;;;;;5052730;28;49869;-73
2021/11/21 10:15:03;;;;;;;;;20.75;17.25;;;;;;;;5051077;28;50074;-72
2021/11/21 10:17:30;;;;;;;;;27.50;22.50;;;;;;;;5061824;28;49814;-73
2021/11/21 10:20:02;;;;;;;;;26.25;23.00;;;;;;;;5069982;27;49946;-69
2021/11/21 10:22:47;;;;;;;;;24.00;21.00;;;;;;;;5071445;27;49842;-65
2021/11/21 10:25:12;;;;;;;;;26.75;26.25;;;;;;;;5072413;28;49855;-66
2021/11/21 10:27:42;;;;;;;;;17.25;15.25;;;;;;;;5071805;27;49843;-64
2021/11/21 10:30:08;;;;;;;;;24.25;21.25;;;;;;;;5072529;27;49707;-69
2021/11/21 10:32:34;;;;;;;;;3.25;2.25;;;;;;;;5071476;28;49833;-68
2021/11/21 10:35:12;;;;;;;;;28.75;23.75;;;;;;;;5072089;28;50372;-64
2021/11/21 10:37:39;;;;;;;;;25.00;22.75;;;;;;;;5072099;27;49877;-64
2021/11/21 10:40:08;;;;;;;;;24.00;22.75;;;;;;;;5072294;27;49889;-63
2021/11/21 10:42:34;;;;;;;;;26.00;26.00;;;;;;;;5072292;27;49861;-63
2021/11/21 10:44:59;;;;;;;;;25.25;23.00;;;;;;;;5072012;27;50636;-64
2021/11/21 10:47:39;;;;;;;;;25.75;24.75;;;;;;;;5072369;27;49757;-64
2021/11/21 10:50:05;;;;;;;;;28.25;26.25;;;;;;;;5071267;27;49815;-77
2021/11/21 10:52:30;;;;;;;;;29.50;26.50;;;;;;;;5071122;28;49488;-63
2021/11/21 10:54:57;;;;;;;;;28.00;26.50;;;;;;;;5072176;28;49568;-68
2021/11/21 10:57:29;;;;;;;;;20.50;20.50;;;;;;;;5071985;27;49571;-66
2021/11/21 10:59:58;;;;;;;;;26.00;26.00;;;;;;;;5070847;28;50086;-69
2021/11/21 11:02:31;;;;;;;;;25.25;23.25;;;;;;;;5072152;27;49874;-67
2021/11/21 11:05:00;;;;;;;;;32.75;27.50;;;;;;;;5071770;27;50399;-70
2021/11/21 11:07:26;;;;;;;;;21.50;21.50;;;;;;;;5071617;27;50126;-71
2021/11/21 11:09:52;;;;;;;;;25.50;25.25;;;;;;;;5072163;27;50180;-66
2021/11/21 11:12:18;;;;;;;;;28.00;24.75;;;;;;;;5072215;27;49640;-69
2021/11/21 11:14:43;;;;;;;;;26.25;25.00;;;;;;;;5071767;27;50404;-68
2021/11/21 11:17:08;;;;;;;;;29.50;24.25;;;;;;;;5071958;28;49714;-67
2021/11/21 11:19:34;;;;;;;;;33.50;28.25;;;;;;;;5071720;28;49703;-70
2021/11/21 11:22:00;;;;;;;;;28.50;25.75;;;;;;;;5071926;27;49786;-70
2021/11/21 11:24:25;;;;;;;;;26.50;24.50;;;;;;;;5071579;27;49694;-70
2021/11/21 11:26:56;;;;;;;;;33.75;29.50;;;;;;;;5071715;27;49745;-75
2021/11/21 11:29:25;;;;;;;;;30.25;28.50;;;;;;;;5071618;27;49164;-74
2021/11/21 11:31:50;;;;;;;;;23.75;23.25;;;;;;;;5071814;27;49890;-71
2021/11/21 11:34:35;;;;;;;;;37.25;28.00;;;;;;;;5071058;28;50800;-80
2021/11/21 11:37:01;;;;;;;;;24.00;22.75;;;;;;;;5070550;27;49755;-72
2021/11/21 11:39:38;;;;;;;;;30.25;29.75;;;;;;;;5070146;28;49657;-64
2021/11/21 11:42:23;;;;;;;;;34.75;27.25;;;;;;;;5071314;27;49642;-66
2021/11/21 11:44:53;;;;;;;;;26.25;26.00;;;;;;;;5063309;28;49806;-62
2021/11/21 11:47:22;;;;;;;;;29.50;28.00;;;;;;;;5065172;28;49807;-66
2021/11/21 11:49:47;;;;;;;;;32.25;30.25;;;;;;;;5075101;27;49789;-81
2021/11/21 11:52:12;;;;;;;;;32.00;28.00;;;;;;;;5067862;27;50789;-66
2021/11/21 11:54:40;;;;;;;;;26.00;22.00;;;;;;;;5065573;28;50794;-62
2021/11/21 11:57:08;;;;;;;;;31.25;28.00;;;;;;;;5068810;27;50041;-67
2021/11/21 11:59:49;;;;;;;;;30.25;27.00;;;;;;;;5068306;28;50032;-62
2021/11/21 12:02:29;;;;;;;;;26.00;26.00;;;;;;;;5068088;27;49986;-62
2021/11/21 12:04:56;;;;;;;;;22.00;19.75;;;;;;;;5070359;27;50378;-64
2021/11/21 12:07:29;;;;;;;;;30.25;30.25;;;;;;;;5066988;28;49777;-70
2021/11/21 12:09:57;;;;;;;;;36.00;30.50;;;;;;;;5071552;28;50815;-66
2021/11/21 12:12:42;;;;;;;;;29.25;26.25;;;;;;;;5067977;28;50056;-77
2021/11/21 12:15:29;;;;;;;;;30.50;25.50;;;;;;;;5084866;27;51582;-72
2021/11/21 12:17:55;;;;;;;;;27.00;27.00;;;;;;;;5077097;28;49783;-73
2021/11/21 12:20:39;;;;;;;;;37.00;32.25;;;;;;;;5057183;28;49580;-75
2021/11/21 12:23:05;;;;;;;;;32.50;32.25;;;;;;;;5049199;28;50127;-70
2021/11/21 12:25:30;;;;;;;;;38.00;35.00;;;;;;;;5052997;28;49779;-71
2021/11/21 12:27:58;;;;;;;;;27.75;27.75;;;;;;;;5060911;28;49894;-82
2021/11/21 12:30:24;;;;;;;;;36.75;32.00;;;;;;;;5071366;27;49901;-77
2021/11/21 12:32:56;;;;;;;;;36.25;32.75;;;;;;;;5085138;28;49713;-73
2021/11/21 12:35:22;;;;;;;;;30.75;27.00;;;;;;;;5079543;27;49772;-72
2021/11/21 12:37:48;;;;;;;;;26.50;24.00;;;;;;;;5075958;28;49848;-70
2021/11/21 12:40:13;;;;;;;;;33.25;29.00;;;;;;;;5072590;27;49969;-71
2021/11/21 12:42:39;;;;;;;;;35.25;26.25;;;;;;;;5078845;28;49775;-77
2021/11/21 12:45:08;;;;;;;;;27.00;25.75;;;;;;;;5070139;27;51578;-67
2021/11/21 12:47:34;;;;;;;;;28.00;25.00;;;;;;;;5075453;27;49737;-69
2021/11/21 12:50:00;;;;;;;;;29.75;26.50;;;;;;;;5071264;28;49689;-70
2021/11/21 12:52:25;;;;;;;;;25.25;23.25;;;;;;;;5075155;28;49541;-70
2021/11/21 12:54:51;;;;;;;;;25.00;24.25;;;;;;;;5079991;27;49776;-69
2021/11/21 12:57:17;;;;;;;;;28.75;25.25;;;;;;;;5077871;27;50025;-73
2021/11/21 12:59:46;;;;;;;;;34.50;32.00;;;;;;;;5077525;28;49710;-68
2021/11/21 13:02:12;;;;;;;;;19.25;19.25;;;;;;;;5070436;27;49826;-71
2021/11/21 13:04:51;;;;;;;;;19.75;17.25;;;;;;;;5071472;27;50551;-66
2021/11/21 13:07:22;;;;;;;;;22.25;20.50;;;;;;;;5070418;27;49758;-70
2021/11/21 13:10:06;;;;;;;;;16.50;15.25;;;;;;;;5085492;27;49657;-75
2021/11/21 13:12:33;;;;;;;;;18.25;13.25;;;;;;;;5078758;27;49755;-72
2021/11/21 13:14:59;;;;;;;;;16.00;15.50;;;;;;;;5079788;28;50751;-70
2021/11/21 13:17:24;;;;;;;;;15.50;12.25;;;;;;;;5076795;27;49852;-75
2021/11/21 13:20:00;;;;;;;;;17.50;17.00;;;;;;;;5081379;28;49573;-72
2021/11/21 13:22:44;;;;;;;;;18.25;16.75;;;;;;;;5086131;27;49391;-73
2021/11/21 13:25:10;;;;;;;;;16.00;16.00;;;;;;;;5073664;28;51477;-71
2021/11/21 13:27:35;;;;;;;;;19.50;19.50;;;;;;;;5072731;28;49947;-77
2021/11/21 13:30:12;;;;;;;;;18.00;17.00;;;;;;;;5075992;27;50098;-69
2021/11/21 13:32:37;;;;;;;;;22.75;19.50;;;;;;;;5075709;27;49996;-75
2021/11/21 13:35:15;;;;;;;;;29.00;23.75;;;;;;;;5078544;28;49708;-81
2021/11/21 13:37:41;;;;;;;;;15.50;14.00;;;;;;;;5066250;28;49736;-73
2021/11/21 13:40:06;;;;;;;;;7.00;7.00;;;;;;;;5081926;27;49559;-74
2021/11/21 13:42:31;;;;;;;;;10.75;10.00;;;;;;;;5074993;27;50031;-71
2021/11/21 13:44:56;;;;;;;;;10.25;10.25;;;;;;;;5075914;27;49870;-77
2021/11/21 13:47:26;;;;;;;;;13.25;12.75;;;;;;;;5073675;27;49778;-74
2021/11/21 13:49:53;;;;;;;;;7.50;7.50;;;;;;;;5073518;27;50070;-80
2021/11/21 13:52:20;;;;;;;;;11.50;10.00;;;;;;;;5076980;27;49585;-74
2021/11/21 13:54:49;;;;;;;;;7.75;6.50;;;;;;;;5071867;28;51854;-73
2021/11/21 13:57:26;;;;;;;;;10.25;10.25;;;;;;;;5075565;28;49720;-72
2021/11/21 13:59:53;;;;;;;;;8.00;7.75;;;;;;;;5076449;27;49576;-78
2021/11/21 14:02:31;;;;;;;;;9.00;8.00;;;;;;;;5073135;27;49907;-68
2021/11/21 14:05:01;;;;;;;;;8.25;8.00;;;;;;;;5073127;27;49521;-76
2021/11/21 14:07:26;;;;;;;;;6.00;6.00;;;;;;;;5075468;27;49922;-73
2021/11/21 14:09:52;;;;;;;;;10.00;8.50;;;;;;;;5079720;28;49657;-75
2021/11/21 14:12:21;;;;;;;;;12.00;8.75;;;;;;;;5081086;27;49903;-73
2021/11/21 14:15:01;;;;;;;;;14.00;9.50;;;;;;;;5071133;27;53068;-74
2021/11/21 14:17:26;;;;;;;;;12.25;9.75;;;;;;;;5081128;28;49855;-81